createdAt,value
2018-07-16T00:03:13.830Z,16.00
2018-07-16T00:07:58.295Z,15.90
2018-07-16T00:12:42.709Z,15.50
2018-07-16T00:17:27.115Z,15.30
2018-07-16T00:22:11.713Z,15.30
2018-07-16T00:26:56.486Z,15.30
2018-07-16T00:31:40.898Z,15.60
2018-07-16T00:36:25.170Z,15.90
2018-07-16T00:41:09.581Z,16.10
2018-07-16T00:45:53.920Z,15.90
2018-07-16T00:50:38.327Z,15.70
2018-07-16T00:55:22.642Z,15.40
2018-07-16T01:00:07.039Z,15.30
2018-07-16T01:04:51.421Z,15.60
2018-07-16T01:09:35.825Z,15.50
2018-07-16T01:14:20.450Z,15.30
2018-07-16T01:19:04.788Z,15.00
2018-07-16T01:23:49.179Z,14.70
2018-07-16T01:28:33.503Z,14.30
2018-07-16T01:33:19.803Z,14.20
2018-07-16T01:38:04.176Z,14.40
2018-07-16T01:42:48.522Z,14.80
2018-07-16T01:47:32.854Z,15.00
2018-07-16T01:52:17.173Z,15.20
2018-07-16T01:57:01.565Z,15.20
2018-07-16T02:01:46.148Z,15.10
2018-07-16T02:06:30.513Z,15.10
2018-07-16T02:11:14.914Z,15.20
2018-07-16T02:15:59.903Z,15.40
2018-07-16T02:20:44.962Z,15.40
2018-07-16T02:25:29.494Z,15.40
2018-07-16T02:30:13.902Z,15.50
2018-07-16T02:34:58.344Z,15.50
2018-07-16T02:39:42.834Z,15.50
2018-07-16T02:44:27.296Z,15.50
2018-07-16T02:49:11.598Z,15.30
2018-07-16T02:53:55.962Z,15.00
2018-07-16T02:58:40.293Z,14.90
2018-07-16T03:03:24.655Z,15.00
2018-07-16T03:08:09.013Z,15.10
2018-07-16T03:12:53.416Z,15.10
2018-07-16T03:17:37.751Z,15.10
2018-07-16T03:22:22.091Z,15.30
2018-07-16T03:27:06.420Z,15.20
2018-07-16T03:31:50.788Z,15.10
2018-07-16T03:36:35.199Z,15.20
2018-07-16T03:41:19.639Z,15.20
2018-07-16T03:46:03.976Z,15.30
2018-07-16T03:50:48.452Z,15.60
2018-07-16T03:55:33.035Z,16.30
2018-07-16T04:00:17.645Z,16.90
2018-07-16T04:05:01.938Z,17.30
2018-07-16T04:09:46.301Z,17.30
2018-07-16T04:14:30.719Z,17.50
2018-07-16T04:19:15.066Z,17.50
2018-07-16T04:23:59.450Z,17.20
2018-07-16T04:28:43.779Z,17.10
2018-07-16T04:33:28.136Z,17.10
2018-07-16T04:38:12.535Z,17.10
2018-07-16T04:42:56.983Z,17.10
2018-07-16T04:47:41.357Z,17.40
2018-07-16T04:52:25.742Z,17.70
2018-07-16T04:57:11.205Z,17.80
2018-07-16T05:01:55.522Z,17.90
2018-07-16T05:06:39.909Z,18.30
2018-07-16T05:11:24.246Z,18.70
2018-07-16T05:16:08.760Z,19.00
2018-07-16T05:20:53.385Z,19.40
2018-07-16T05:25:37.758Z,19.90
2018-07-16T05:30:22.150Z,20.40
2018-07-16T05:35:06.489Z,20.80
2018-07-16T05:39:51.057Z,21.10
2018-07-16T05:44:35.461Z,21.40
2018-07-16T05:49:20.065Z,21.40
2018-07-16T05:54:04.502Z,21.60
2018-07-16T05:58:49.035Z,21.90
2018-07-16T06:03:34.010Z,22.20
2018-07-16T06:08:18.733Z,22.50
2018-07-16T06:13:03.093Z,22.70
2018-07-16T06:17:47.579Z,23.00
2018-07-16T06:22:32.238Z,23.30
2018-07-16T06:27:16.670Z,23.70
2018-07-16T06:32:01.088Z,23.60
2018-07-16T06:36:45.682Z,23.50
2018-07-16T06:41:30.354Z,23.40
2018-07-16T06:46:14.354Z,23.40
2018-07-16T06:50:58.707Z,23.30
2018-07-16T06:55:43.184Z,23.30
2018-07-16T07:00:27.579Z,23.50
2018-07-16T07:05:11.919Z,23.60
2018-07-16T07:09:56.272Z,24.00
2018-07-16T07:14:40.649Z,24.40
2018-07-16T07:19:25.127Z,24.80
2018-07-16T07:24:09.394Z,25.10
2018-07-16T07:28:53.703Z,25.30
2018-07-16T07:33:38.082Z,25.40
2018-07-16T07:38:22.454Z,25.80
2018-07-16T07:43:06.972Z,25.90
2018-07-16T07:47:51.355Z,26.40
2018-07-16T07:52:35.782Z,26.80
2018-07-16T07:57:20.237Z,26.80
2018-07-16T08:02:04.705Z,27.10
2018-07-16T08:06:54.333Z,27.30
2018-07-16T08:11:38.691Z,27.20
2018-07-16T08:16:23.074Z,27.70
2018-07-16T08:21:07.640Z,28.10
2018-07-16T08:25:51.970Z,28.60
2018-07-16T08:30:36.422Z,29.00
2018-07-16T08:35:20.761Z,28.80
2018-07-16T08:40:05.975Z,28.50
2018-07-16T08:44:50.385Z,28.50
2018-07-16T08:49:34.754Z,29.20
2018-07-16T08:54:19.232Z,29.40
2018-07-16T08:59:04.002Z,29.00
2018-07-16T09:03:48.331Z,29.20
2018-07-16T09:08:33.665Z,29.60
2018-07-16T09:13:18.100Z,30.00
2018-07-16T09:18:02.469Z,29.50
2018-07-16T09:22:46.869Z,29.00
2018-07-16T09:27:31.331Z,29.00
2018-07-16T09:32:15.727Z,29.20
2018-07-16T09:37:00.178Z,29.30
2018-07-16T09:41:45.353Z,29.30
2018-07-16T09:46:29.842Z,29.80
2018-07-16T09:51:14.246Z,30.00
2018-07-16T09:55:58.654Z,29.70
2018-07-16T10:00:48.058Z,29.90
2018-07-16T10:05:32.488Z,30.00
2018-07-16T10:10:16.941Z,30.00
2018-07-16T10:15:01.372Z,29.80
2018-07-16T10:19:45.877Z,29.30
2018-07-16T10:24:30.635Z,29.70
2018-07-16T10:29:14.962Z,30.00
2018-07-16T10:33:59.400Z,29.80
2018-07-16T10:38:43.738Z,30.20
2018-07-16T10:43:28.165Z,30.10
2018-07-16T10:48:12.493Z,30.10
2018-07-16T10:52:56.894Z,30.10
2018-07-16T10:57:41.373Z,30.60
2018-07-16T11:02:25.845Z,30.60
2018-07-16T11:07:10.245Z,30.40
2018-07-16T11:11:54.687Z,31.20
2018-07-16T11:16:39.231Z,31.20
2018-07-16T11:21:23.686Z,30.80
2018-07-16T11:26:08.188Z,30.70
2018-07-16T11:30:53.107Z,31.30
2018-07-16T11:35:37.504Z,31.20
2018-07-16T11:40:21.866Z,31.40
2018-07-16T11:45:06.307Z,31.20
2018-07-16T11:49:50.906Z,30.60
2018-07-16T11:54:35.293Z,31.10
2018-07-16T11:59:19.661Z,31.20
2018-07-16T12:04:03.939Z,31.50
2018-07-16T12:08:48.314Z,31.80
2018-07-16T12:13:32.627Z,31.80
2018-07-16T12:18:16.949Z,31.90
2018-07-16T12:23:01.427Z,31.50
2018-07-16T12:27:45.940Z,31.80
2018-07-16T12:32:30.366Z,32.00
2018-07-16T12:37:14.734Z,32.30
2018-07-16T12:41:59.365Z,32.00
2018-07-16T12:46:43.764Z,32.20
2018-07-16T12:51:28.172Z,32.00
2018-07-16T12:56:12.614Z,32.40
2018-07-16T13:00:57.021Z,32.10
2018-07-16T13:05:41.454Z,32.00
2018-07-16T13:10:25.835Z,32.30
2018-07-16T13:15:10.285Z,32.00
2018-07-16T13:19:54.654Z,32.00
2018-07-16T13:24:38.964Z,32.20
2018-07-16T13:29:23.354Z,32.20
2018-07-16T13:34:07.757Z,32.90
2018-07-16T13:38:52.215Z,33.40
2018-07-16T13:43:36.526Z,33.20
2018-07-16T13:48:21.129Z,32.90
2018-07-16T13:53:05.854Z,33.10
2018-07-16T13:57:50.211Z,33.00
2018-07-16T14:02:34.582Z,33.20
2018-07-16T14:07:18.890Z,32.80
2018-07-16T14:12:03.394Z,32.80
2018-07-16T14:16:47.787Z,33.10
2018-07-16T14:21:32.201Z,33.10
2018-07-16T14:26:16.572Z,33.10
2018-07-16T14:31:00.968Z,32.90
2018-07-16T14:35:45.282Z,33.00
2018-07-16T14:40:29.648Z,32.30
2018-07-16T14:45:13.934Z,31.60
2018-07-16T14:49:58.326Z,31.80
2018-07-16T14:54:42.640Z,32.00
2018-07-16T14:59:27.059Z,32.30
2018-07-16T15:04:11.511Z,32.40
2018-07-16T15:08:56.017Z,32.70
2018-07-16T15:13:40.370Z,32.60
2018-07-16T15:18:24.997Z,32.70
2018-07-16T15:23:09.337Z,32.90
2018-07-16T15:27:53.858Z,32.00
2018-07-16T15:32:38.297Z,30.80
2018-07-16T15:37:22.656Z,30.60
2018-07-16T15:42:07.031Z,30.50
2018-07-16T15:46:51.586Z,31.10
2018-07-16T15:51:36.008Z,31.70
2018-07-16T15:56:20.591Z,32.30
2018-07-16T16:01:04.923Z,32.80
2018-07-16T16:05:49.428Z,33.00
2018-07-16T16:10:33.971Z,33.60
2018-07-16T16:15:18.711Z,34.20
2018-07-16T16:20:03.060Z,33.90
2018-07-16T16:24:47.449Z,34.30
2018-07-16T16:29:31.810Z,34.70
2018-07-16T16:34:16.282Z,34.90
2018-07-16T16:39:00.706Z,35.30
2018-07-16T16:43:45.402Z,35.60
2018-07-16T16:48:29.777Z,35.80
2018-07-16T16:53:14.174Z,35.30
2018-07-16T16:57:58.562Z,34.90
2018-07-16T17:02:42.964Z,34.80
2018-07-16T17:07:27.445Z,34.20
2018-07-16T17:12:11.839Z,33.90
2018-07-16T17:16:56.312Z,32.30
2018-07-16T17:21:41.549Z,31.60
2018-07-16T17:26:25.900Z,30.30
2018-07-16T17:31:10.283Z,30.00
2018-07-16T17:35:55.060Z,30.60
2018-07-16T17:40:39.403Z,30.10
2018-07-16T17:45:23.953Z,28.80
2018-07-16T17:50:08.393Z,28.20
2018-07-16T17:54:52.938Z,27.60
2018-07-16T17:59:37.325Z,26.90
2018-07-16T18:04:21.838Z,26.30
2018-07-16T18:09:07.581Z,25.60
2018-07-16T18:13:52.029Z,25.00
2018-07-16T18:18:36.595Z,24.40
2018-07-16T18:23:21.025Z,24.00
2018-07-16T18:28:05.414Z,23.60
2018-07-16T18:32:49.816Z,23.20
2018-07-16T18:37:34.267Z,23.00
2018-07-16T18:42:18.658Z,22.60
2018-07-16T18:47:02.992Z,22.40
2018-07-16T18:51:47.506Z,22.30
2018-07-16T18:56:31.903Z,22.00
2018-07-16T19:01:16.320Z,21.60
2018-07-16T19:06:00.692Z,21.30
2018-07-16T19:10:45.079Z,21.00
2018-07-16T19:15:29.699Z,20.70
2018-07-16T19:20:14.109Z,20.40
2018-07-16T19:24:58.590Z,20.10
2018-07-16T19:29:43.247Z,20.00
2018-07-16T19:34:27.664Z,19.70
2018-07-16T19:39:12.563Z,19.50
2018-07-16T19:43:56.976Z,19.40
2018-07-16T19:48:41.548Z,19.30
2018-07-16T19:53:26.043Z,19.10
2018-07-16T19:58:10.471Z,19.00
2018-07-16T20:02:54.895Z,18.80
2018-07-16T20:07:39.581Z,18.70
2018-07-16T20:12:30.997Z,18.60
2018-07-16T20:17:15.536Z,18.70
2018-07-16T20:21:59.950Z,18.60
2018-07-16T20:26:44.578Z,18.50
2018-07-16T20:31:29.006Z,18.40
2018-07-16T20:36:13.583Z,18.30
2018-07-16T20:40:58.106Z,18.20
2018-07-16T20:45:43.025Z,18.10
2018-07-16T20:50:28.103Z,18.00
2018-07-16T20:55:12.748Z,18.00
2018-07-16T20:59:57.451Z,17.90
2018-07-16T21:04:42.098Z,17.90
2018-07-16T21:09:26.747Z,17.80
2018-07-16T21:14:11.165Z,17.80
2018-07-16T21:18:55.554Z,17.70
2018-07-16T21:23:39.915Z,17.70
2018-07-16T21:28:24.302Z,17.50
2018-07-16T21:33:08.789Z,17.40
2018-07-16T21:37:53.191Z,17.50
2018-07-16T21:42:37.676Z,17.70
2018-07-16T21:47:22.128Z,17.70
2018-07-16T21:52:06.757Z,17.80
2018-07-16T21:56:51.382Z,17.70
2018-07-16T22:01:35.758Z,17.60
2018-07-16T22:06:20.195Z,17.60
2018-07-16T22:11:04.697Z,17.80
2018-07-16T22:15:49.052Z,18.20
2018-07-16T22:20:33.399Z,18.30
2018-07-16T22:25:17.914Z,18.20
2018-07-16T22:30:02.264Z,18.00
2018-07-16T22:34:46.639Z,17.70
2018-07-16T22:39:31.151Z,17.80
2018-07-16T22:44:15.530Z,17.90
2018-07-16T22:48:59.882Z,18.00
2018-07-16T22:53:44.253Z,17.90
2018-07-16T22:58:28.578Z,17.70
2018-07-16T23:03:12.913Z,17.30
2018-07-16T23:07:57.317Z,16.90
2018-07-16T23:12:41.566Z,16.70
2018-07-16T23:17:26.065Z,16.50
2018-07-16T23:22:10.449Z,16.60
2018-07-16T23:26:54.748Z,16.50
2018-07-16T23:31:39.171Z,16.30
2018-07-16T23:36:23.560Z,16.30
2018-07-16T23:41:08.129Z,16.60
2018-07-16T23:45:52.486Z,16.70
2018-07-16T23:50:36.769Z,16.60
2018-07-16T23:55:21.077Z,16.40
